sensor_id;sensor_type;location;lat;lon;timestamp;pressure;altitude;pressure_sealevel;temperature;humidity
55410;BME280;41279;43.546;16.426;2023-04-08T00:02:08;114110.09;;;-146.77;100.00
55410;BME280;41279;43.546;16.426;2023-04-08T00:04:34;114110.09;;;-146.77;100.00
55410;BME280;41279;43.546;16.426;2023-04-08T00:07:00;112549.03;;;-146.77;100.00
55410;BME280;41279;43.546;16.426;2023-04-08T00:09:25;110468.56;;;-146.77;100.00
55410;BME280;41279;43.546;16.426;2023-04-08T00:11:51;109948.63;;;-146.77;100.00
55410;BME280;41279;43.546;16.426;2023-04-08T00:14:17;110208.59;;;-146.77;100.00
55410;BME280;41279;43.546;16.426;2023-04-08T00:16:42;111508.66;;;-146.77;100.00
55410;BME280;41279;43.546;16.426;2023-04-08T00:19:08;112288.94;;;-146.77;100.00
55410;BME280;41279;43.546;16.426;2023-04-08T00:21:33;112809.19;;;-146.77;100.00
55410;BME280;41279;43.546;16.426;2023-04-08T00:23:59;112809.19;;;-146.77;100.00
55410;BME280;41279;43.546;16.426;2023-04-08T00:26:24;111768.75;;;-146.77;100.00
55410;BME280;41279;43.546;16.426;2023-04-08T00:28:50;111768.75;;;-146.77;100.00
55410;BME280;41279;43.546;16.426;2023-04-08T00:31:24;113069.31;;;-146.77;100.00
55410;BME280;41279;43.546;16.426;2023-04-08T00:33:49;112288.94;;;-146.77;100.00
55410;BME280;41279;43.546;16.426;2023-04-08T00:36:15;113849.88;;;-146.77;100.00
55410;BME280;41279;43.546;16.426;2023-04-08T00:38:40;114110.09;;;-146.77;100.00
55410;BME280;41279;43.546;16.426;2023-04-08T00:41:06;115932.06;;;-146.77;100.00
55410;BME280;41279;43.546;16.426;2023-04-08T00:43:31;115932.06;;;-146.77;100.00
55410;BME280;41279;43.546;16.426;2023-04-08T00:45:57;116192.41;;;-146.77;100.00
55410;BME280;41279;43.546;16.426;2023-04-08T00:48:22;116713.16;;;-146.77;100.00
55410;BME280;41279;43.546;16.426;2023-04-08T00:50:48;116713.16;;;-146.77;100.00
55410;BME280;41279;43.546;16.426;2023-04-08T00:53:16;116452.78;;;-146.77;100.00
55410;BME280;41279;43.546;16.426;2023-04-08T00:55:42;116713.16;;;-146.77;100.00
55410;BME280;41279;43.546;16.426;2023-04-08T00:58:07;116452.78;;;-146.77;100.00
55410;BME280;41279;43.546;16.426;2023-04-08T01:00:35;115932.06;;;-146.77;100.00
55410;BME280;41279;43.546;16.426;2023-04-08T01:03:23;115411.41;;;-146.77;100.00
55410;BME280;41279;43.546;16.426;2023-04-08T01:08:42;113589.66;;;-146.77;100.00
55410;BME280;41279;43.546;16.426;2023-04-08T01:11:10;114110.09;;;-146.77;100.00
55410;BME280;41279;43.546;16.426;2023-04-08T01:13:39;114890.84;;;-146.77;100.00
55410;BME280;41279;43.546;16.426;2023-04-08T01:16:12;116452.78;;;-146.77;100.00
55410;BME280;41279;43.546;16.426;2023-04-08T01:18:40;116713.16;;;-146.77;100.00
55410;BME280;41279;43.546;16.426;2023-04-08T01:21:07;114630.56;;;-146.77;100.00
55410;BME280;41279;43.546;16.426;2023-04-08T01:24:22;113849.88;;;-146.77;100.00
55410;BME280;41279;43.546;16.426;2023-04-08T01:26:26;114110.09;;;-146.77;100.00
55410;BME280;41279;43.546;16.426;2023-04-08T01:28:56;112549.03;;;-146.77;100.00
55410;BME280;41279;43.546;16.426;2023-04-08T01:31:23;112549.03;;;-146.77;100.00
55410;BME280;41279;43.546;16.426;2023-04-08T01:33:50;110468.56;;;-146.77;100.00
55410;BME280;41279;43.546;16.426;2023-04-08T01:36:16;109688.66;;;-146.77;100.00
55410;BME280;41279;43.546;16.426;2023-04-08T01:38:43;108389.16;;;-146.77;100.00
55410;BME280;41279;43.546;16.426;2023-04-08T01:41:10;108649.03;;;-146.77;100.00
55410;BME280;41279;43.546;16.426;2023-04-08T01:43:38;108908.91;;;-146.77;100.00
55410;BME280;41279;43.546;16.426;2023-04-08T01:46:04;107609.66;;;-146.77;100.00
55410;BME280;41279;43.546;16.426;2023-04-08T01:48:30;105531.72;;;-146.77;100.00
55410;BME280;41279;43.546;16.426;2023-04-08T01:50:57;104752.75;;;-146.77;100.00
55410;BME280;41279;43.546;16.426;2023-04-08T01:53:23;108129.31;;;-146.77;100.00
55410;BME280;41279;43.546;16.426;2023-04-08T01:55:57;106830.31;;;-146.77;100.00
55410;BME280;41279;43.546;16.426;2023-04-08T01:58:27;107090.06;;;-146.77;100.00
55410;BME280;41279;43.546;16.426;2023-04-08T02:00:57;111508.66;;;-146.77;100.00
55410;BME280;41279;43.546;16.426;2023-04-08T02:03:23;115932.06;;;-146.77;100.00
55410;BME280;41279;43.546;16.426;2023-04-08T02:05:49;115932.06;;;-146.77;100.00
55410;BME280;41279;43.546;16.426;2023-04-08T02:08:15;114890.84;;;-146.77;100.00
55410;BME280;41279;43.546;16.426;2023-04-08T02:10:40;113849.88;;;-146.77;100.00
55410;BME280;41279;43.546;16.426;2023-04-08T02:13:06;112288.94;;;-146.77;100.00
55410;BME280;41279;43.546;16.426;2023-04-08T02:15:34;111508.66;;;-146.77;100.00
55410;BME280;41279;43.546;16.426;2023-04-08T02:18:26;110468.56;;;-146.77;100.00
55410;BME280;41279;43.546;16.426;2023-04-08T02:21:13;109428.75;;;-146.77;100.00
55410;BME280;41279;43.546;16.426;2023-04-08T02:23:41;110468.56;;;-146.77;100.00
55410;BME280;41279;43.546;16.426;2023-04-08T02:26:14;113329.50;;;-146.77;100.00
55410;BME280;41279;43.546;16.426;2023-04-08T02:28:41;112549.03;;;-146.77;100.00
55410;BME280;41279;43.546;16.426;2023-04-08T02:31:11;113069.31;;;-146.77;100.00
55410;BME280;41279;43.546;16.426;2023-04-08T02:33:40;112028.81;;;-146.77;100.00
55410;BME280;41279;43.546;16.426;2023-04-08T02:36:07;111248.63;;;-146.77;100.00
55410;BME280;41279;43.546;16.426;2023-04-08T02:38:34;109688.66;;;-146.77;100.00
55410;BME280;41279;43.546;16.426;2023-04-08T02:41:00;108649.03;;;-146.77;100.00
55410;BME280;41279;43.546;16.426;2023-04-08T02:43:25;107609.66;;;-146.77;100.00
55410;BME280;41279;43.546;16.426;2023-04-08T02:45:56;106051.09;;;-146.77;100.00
55410;BME280;41279;43.546;16.426;2023-04-08T02:48:22;105012.41;;;-146.77;100.00
55410;BME280;41279;43.546;16.426;2023-04-08T02:50:47;103973.94;;;-146.77;100.00
55410;BME280;41279;43.546;16.426;2023-04-08T02:53:12;103454.81;;;-146.77;100.00
55410;BME280;41279;43.546;16.426;2023-04-08T02:55:38;102935.78;;;-146.77;100.00
55410;BME280;41279;43.546;16.426;2023-04-08T02:58:04;104233.53;;;-146.77;100.00
55410;BME280;41279;43.546;16.426;2023-04-08T03:00:30;105272.03;;;-146.77;100.00
55410;BME280;41279;43.546;16.426;2023-04-08T03:02:55;106051.09;;;-146.77;100.00
55410;BME280;41279;43.546;16.426;2023-04-08T03:05:21;107349.84;;;-146.77;100.00
55410;BME280;41279;43.546;16.426;2023-04-08T03:07:46;107609.66;;;-146.77;100.00
55410;BME280;41279;43.546;16.426;2023-04-08T03:10:12;113329.50;;;-146.77;100.00
55410;BME280;41279;43.546;16.426;2023-04-08T03:12:37;112028.81;;;-146.77;100.00
55410;BME280;41279;43.546;16.426;2023-04-08T03:15:03;109948.63;;;-146.77;100.00
55410;BME280;41279;43.546;16.426;2023-04-08T03:17:29;107869.47;;;-146.77;100.00
55410;BME280;41279;43.546;16.426;2023-04-08T03:19:57;104752.75;;;-146.77;100.00
55410;BME280;41279;43.546;16.426;2023-04-08T03:22:23;103195.28;;;-146.77;100.00
55410;BME280;41279;43.546;16.426;2023-04-08T03:24:49;100341.50;;;-146.77;100.00
55410;BME280;41279;43.546;16.426;2023-04-08T03:27:14;97230.53;;;-146.77;100.00
55410;BME280;41279;43.546;16.426;2023-04-08T03:29:39;85327.38;;;-146.77;100.00
55410;BME280;41279;43.546;16.426;2023-04-08T03:32:05;80679.19;;;-146.77;100.00
55410;BME280;41279;43.546;16.426;2023-04-08T03:34:33;76809.78;;;-146.77;100.00
55410;BME280;41279;43.546;16.426;2023-04-08T03:36:58;95675.97;;;-146.77;100.00
55410;BME280;41279;43.546;16.426;2023-04-08T03:39:24;97489.69;;;-146.77;100.00
55410;BME280;41279;43.546;16.426;2023-04-08T03:41:49;94898.91;;;-146.77;100.00
55410;BME280;41279;43.546;16.426;2023-04-08T03:44:15;78357.09;;;-146.77;100.00
55410;BME280;41279;43.546;16.426;2023-04-08T03:46:40;80421.09;;;-146.77;100.00
55410;BME280;41279;43.546;16.426;2023-04-08T03:49:06;73716.94;;;-146.77;100.00
55410;BME280;41279;43.546;16.426;2023-04-08T03:51:31;76809.78;;;-146.77;100.00
55410;BME280;41279;43.546;16.426;2023-04-08T03:53:57;90239.66;;;-146.77;100.00
55410;BME280;41279;43.546;16.426;2023-04-08T03:56:22;88429.16;;;-146.77;100.00
55410;BME280;41279;43.546;16.426;2023-04-08T03:58:49;84810.66;;;-146.77;100.00
55410;BME280;41279;43.546;16.426;2023-04-08T04:01:15;80163.03;;;-146.77;100.00
55410;BME280;41279;43.546;16.426;2023-04-08T04:03:40;79905.00;;;-146.77;100.00
55410;BME280;41279;43.546;16.426;2023-04-08T04:06:06;80163.03;;;-146.77;100.00
55410;BME280;41279;43.546;16.426;2023-04-08T04:08:31;84552.31;;;-146.77;100.00
55410;BME280;41279;43.546;16.426;2023-04-08T04:11:00;79905.00;;;-146.77;100.00
55410;BME280;41279;43.546;16.426;2023-04-08T04:13:25;70131.78;;;-146.77;100.00
55410;BME280;41279;43.546;16.426;2023-04-08T04:15:51;64862.47;;;-146.77;100.00
55410;BME280;41279;43.546;16.426;2023-04-08T04:18:16;63153.75;;;-146.77;100.00
55410;BME280;41279;43.546;16.426;2023-04-08T04:20:42;61082.59;;;-146.77;100.00
55410;BME280;41279;43.546;16.426;2023-04-08T04:23:08;59096.75;;;-146.77;100.00
55410;BME280;41279;43.546;16.426;2023-04-08T04:25:34;58475.13;;;-146.77;100.00
55410;BME280;41279;43.546;16.426;2023-04-08T04:27:59;58866.13;;;-146.77;100.00
55410;BME280;41279;43.546;16.426;2023-04-08T04:30:26;59523.91;;;-146.77;100.00
55410;BME280;41279;43.546;16.426;2023-04-08T04:32:51;58204.44;;;-146.77;100.00
55410;BME280;41279;43.546;16.426;2023-04-08T04:35:17;60320.22;;;-146.77;100.00
55410;BME280;41279;43.546;16.426;2023-04-08T04:37:42;59594.13;;;-146.77;100.00
55410;BME280;41279;43.546;16.426;2023-04-08T04:40:08;58643.53;;;-146.77;100.00
55410;BME280;41279;43.546;16.426;2023-04-08T04:42:34;58543.28;;;-146.77;100.00
55410;BME280;41279;43.546;16.426;2023-04-08T04:44:59;57222.13;;;-146.77;100.00
55410;BME280;41279;43.546;16.426;2023-04-08T04:47:25;55987.56;;;-146.77;100.00
55410;BME280;41279;43.546;16.426;2023-04-08T04:49:50;55755.13;;;-146.77;100.00
55410;BME280;41279;43.546;16.426;2023-04-08T04:52:16;55246.22;;;-146.77;100.00
55410;BME280;41279;43.546;16.426;2023-04-08T04:54:42;63376.59;;;-146.77;100.00
55410;BME280;41279;43.546;16.426;2023-04-08T04:57:07;84293.97;;;-146.77;100.00
55410;BME280;41279;43.546;16.426;2023-04-08T04:59:33;80937.28;;;-146.77;100.00
55410;BME280;41279;43.546;16.426;2023-04-08T05:01:58;74489.94;;;-146.77;100.00
55410;BME280;41279;43.546;16.426;2023-04-08T05:04:24;62226.41;;;-146.77;100.00
55410;BME280;41279;43.546;16.426;2023-04-08T05:06:50;59126.81;;;-146.77;100.00
55410;BME280;41279;43.546;16.426;2023-04-08T05:09:15;56855.31;;;-146.77;100.00
55410;BME280;41279;43.546;16.426;2023-04-08T05:11:40;56017.63;;;-146.77;100.00
55410;BME280;41279;43.546;16.426;2023-04-08T05:14:06;53547.63;;;-146.77;100.00
55410;BME280;41279;43.546;16.426;2023-04-08T05:16:32;53151.13;;;-146.77;100.00
55410;BME280;41279;43.546;16.426;2023-04-08T05:18:58;52926.88;;;-146.77;100.00
55410;BME280;41279;43.546;16.426;2023-04-08T05:21:23;52866.81;;;-146.77;100.00
55410;BME280;41279;43.546;16.426;2023-04-08T05:23:49;52772.69;;;-146.77;100.00
55410;BME280;41279;43.546;16.426;2023-04-08T05:26:20;52650.56;;;-146.77;100.00
55410;BME280;41279;43.546;16.426;2023-04-08T05:28:47;52588.50;;;-146.77;100.00
55410;BME280;41279;43.546;16.426;2023-04-08T05:31:15;52562.47;;;-146.77;100.00
55410;BME280;41279;43.546;16.426;2023-04-08T05:33:40;52776.69;;;-146.77;100.00
55410;BME280;41279;43.546;16.426;2023-04-08T05:36:06;52704.63;;;-146.77;100.00
55410;BME280;41279;43.546;16.426;2023-04-08T05:38:31;52670.59;;;-146.77;100.00
55410;BME280;41279;43.546;16.426;2023-04-08T05:40:57;52648.56;;;-146.77;100.00
55410;BME280;41279;43.546;16.426;2023-04-08T05:43:22;52700.63;;;-146.77;100.00
55410;BME280;41279;43.546;16.426;2023-04-08T05:45:48;52742.66;;;-146.77;100.00
55410;BME280;41279;43.546;16.426;2023-04-08T05:48:13;52774.69;;;-146.77;100.00
55410;BME280;41279;43.546;16.426;2023-04-08T05:50:39;52868.81;;;-146.77;100.00
55410;BME280;41279;43.546;16.426;2023-04-08T05:53:04;52996.94;;;-146.77;100.00
55410;BME280;41279;43.546;16.426;2023-04-08T05:55:30;52930.88;;;-146.77;100.00
55410;BME280;41279;43.546;16.426;2023-04-08T05:57:55;52930.88;;;-146.77;100.00
55410;BME280;41279;43.546;16.426;2023-04-08T06:00:21;52922.88;;;-146.77;100.00
55410;BME280;41279;43.546;16.426;2023-04-08T06:02:47;52928.88;;;-146.77;100.00
55410;BME280;41279;43.546;16.426;2023-04-08T06:05:12;52982.94;;;-146.77;100.00
55410;BME280;41279;43.546;16.426;2023-04-08T06:07:38;53045.00;;;-146.77;100.00
55410;BME280;41279;43.546;16.426;2023-04-08T06:10:04;53000.97;;;-146.77;100.00
55410;BME280;41279;43.546;16.426;2023-04-08T06:12:34;52882.81;;;-146.77;100.00
55410;BME280;41279;43.546;16.426;2023-04-08T06:15:00;52902.84;;;-146.77;100.00
55410;BME280;41279;43.546;16.426;2023-04-08T06:17:25;52766.69;;;-146.77;100.00
55410;BME280;41279;43.546;16.426;2023-04-08T06:19:50;52746.66;;;-146.77;100.00
55410;BME280;41279;43.546;16.426;2023-04-08T06:22:16;52736.66;;;-146.77;100.00
55410;BME280;41279;43.546;16.426;2023-04-08T06:24:41;52732.66;;;-146.77;100.00
55410;BME280;41279;43.546;16.426;2023-04-08T06:27:07;52726.66;;;-146.77;100.00
55410;BME280;41279;43.546;16.426;2023-04-08T06:29:32;52714.63;;;-146.77;100.00
55410;BME280;41279;43.546;16.426;2023-04-08T06:31:58;52676.59;;;-146.77;100.00
55410;BME280;41279;43.546;16.426;2023-04-08T06:34:23;52640.56;;;-146.77;100.00
55410;BME280;41279;43.546;16.426;2023-04-08T06:36:49;52608.53;;;-146.77;100.00
55410;BME280;41279;43.546;16.426;2023-04-08T06:39:14;52566.47;;;-146.77;100.00
55410;BME280;41279;43.546;16.426;2023-04-08T06:41:41;52588.50;;;-146.77;100.00
55410;BME280;41279;43.546;16.426;2023-04-08T06:44:07;52586.50;;;-146.77;100.00
55410;BME280;41279;43.546;16.426;2023-04-08T06:46:33;52586.50;;;-146.77;100.00
55410;BME280;41279;43.546;16.426;2023-04-08T06:48:58;52598.50;;;-146.77;100.00
55410;BME280;41279;43.546;16.426;2023-04-08T06:51:24;52620.53;;;-146.77;100.00
55410;BME280;41279;43.546;16.426;2023-04-08T06:53:49;52602.50;;;-146.77;100.00
55410;BME280;41279;43.546;16.426;2023-04-08T06:56:15;52596.50;;;-146.77;100.00
55410;BME280;41279;43.546;16.426;2023-04-08T06:58:47;52594.50;;;-146.77;100.00
55410;BME280;41279;43.546;16.426;2023-04-08T07:01:13;52568.47;;;-146.77;96.29
55410;BME280;41279;43.546;16.426;2023-04-08T07:03:40;52560.47;;;-146.77;87.59
55410;BME280;41279;43.546;16.426;2023-04-08T07:06:13;52550.47;;;-146.77;83.89
55410;BME280;41279;43.546;16.426;2023-04-08T07:08:38;52564.47;;;-146.77;80.41
55410;BME280;41279;43.546;16.426;2023-04-08T07:11:04;52558.47;;;-146.77;80.04
55410;BME280;41279;43.546;16.426;2023-04-08T07:13:29;52532.44;;;-146.77;81.03
55410;BME280;41279;43.546;16.426;2023-04-08T07:15:55;52540.44;;;-146.77;77.67
55410;BME280;41279;43.546;16.426;2023-04-08T07:18:20;52510.41;;;-146.77;81.60
55410;BME280;41279;43.546;16.426;2023-04-08T07:20:50;52510.41;;;-146.77;83.16
55410;BME280;41279;43.546;16.426;2023-04-08T07:23:17;52532.44;;;-146.77;84.95
55410;BME280;41279;43.546;16.426;2023-04-08T07:25:42;52520.44;;;-146.77;83.02
55410;BME280;41279;43.546;16.426;2023-04-08T07:28:08;52530.44;;;-146.77;90.43
55410;BME280;41279;43.546;16.426;2023-04-08T07:30:33;52516.41;;;-146.77;87.72
55410;BME280;41279;43.546;16.426;2023-04-08T07:32:59;52514.41;;;-146.77;88.49
55410;BME280;41279;43.546;16.426;2023-04-08T07:35:24;52532.44;;;-146.77;88.91
55410;BME280;41279;43.546;16.426;2023-04-08T07:37:50;52532.44;;;-146.77;84.75
55410;BME280;41279;43.546;16.426;2023-04-08T07:40:17;52534.44;;;-146.77;86.24
55410;BME280;41279;43.546;16.426;2023-04-08T07:42:42;52506.41;;;-146.77;85.97
55410;BME280;41279;43.546;16.426;2023-04-08T07:45:08;52534.44;;;-146.77;85.62
55410;BME280;41279;43.546;16.426;2023-04-08T07:47:34;52550.47;;;-146.77;85.56
55410;BME280;41279;43.546;16.426;2023-04-08T07:49:59;52544.44;;;-146.77;82.33
55410;BME280;41279;43.546;16.426;2023-04-08T07:52:25;52540.44;;;-146.77;83.65
55410;BME280;41279;43.546;16.426;2023-04-08T07:54:51;52572.47;;;-146.77;97.28
55410;BME280;41279;43.546;16.426;2023-04-08T07:57:16;52626.53;;;-146.77;100.00
55410;BME280;41279;43.546;16.426;2023-04-08T07:59:42;52686.59;;;-146.77;100.00
55410;BME280;41279;43.546;16.426;2023-04-08T08:02:07;52712.63;;;-146.77;100.00
55410;BME280;41279;43.546;16.426;2023-04-08T08:04:33;52672.59;;;-146.77;100.00
55410;BME280;41279;43.546;16.426;2023-04-08T08:06:59;52850.78;;;-146.77;100.00
55410;BME280;41279;43.546;16.426;2023-04-08T08:09:24;52820.75;;;-146.77;100.00
55410;BME280;41279;43.546;16.426;2023-04-08T08:11:50;52678.59;;;-146.77;100.00
55410;BME280;41279;43.546;16.426;2023-04-08T08:14:15;52734.66;;;-146.77;100.00
55410;BME280;41279;43.546;16.426;2023-04-08T08:16:40;52714.63;;;-146.77;100.00
55410;BME280;41279;43.546;16.426;2023-04-08T08:19:06;52676.59;;;-146.77;100.00
55410;BME280;41279;43.546;16.426;2023-04-08T08:21:36;52760.69;;;-146.77;100.00
55410;BME280;41279;43.546;16.426;2023-04-08T08:24:01;52704.63;;;-146.77;100.00
55410;BME280;41279;43.546;16.426;2023-04-08T08:26:27;52678.59;;;-146.77;100.00
55410;BME280;41279;43.546;16.426;2023-04-08T08:28:53;52602.50;;;-146.77;100.00
55410;BME280;41279;43.546;16.426;2023-04-08T08:31:18;52670.59;;;-146.77;100.00
55410;BME280;41279;43.546;16.426;2023-04-08T08:33:44;52718.63;;;-146.77;100.00
55410;BME280;41279;43.546;16.426;2023-04-08T08:36:11;52712.63;;;-146.77;100.00
55410;BME280;41279;43.546;16.426;2023-04-08T08:38:36;52650.56;;;-146.77;100.00
55410;BME280;41279;43.546;16.426;2023-04-08T08:41:02;52738.66;;;-146.77;100.00
55410;BME280;41279;43.546;16.426;2023-04-08T08:43:29;52606.53;;;-146.77;100.00
55410;BME280;41279;43.546;16.426;2023-04-08T08:45:58;52582.50;;;-146.77;100.00
55410;BME280;41279;43.546;16.426;2023-04-08T08:48:24;52660.56;;;-146.77;100.00
55410;BME280;41279;43.546;16.426;2023-04-08T08:50:49;52620.53;;;-146.77;100.00
55410;BME280;41279;43.546;16.426;2023-04-08T08:53:15;52626.53;;;-146.77;100.00
55410;BME280;41279;43.546;16.426;2023-04-08T08:55:41;52662.56;;;-146.77;100.00
55410;BME280;41279;43.546;16.426;2023-04-08T08:58:06;52626.53;;;-146.77;100.00
55410;BME280;41279;43.546;16.426;2023-04-08T09:03:27;52618.53;;;-146.77;100.00
55410;BME280;41279;43.546;16.426;2023-04-08T09:10:53;52602.50;;;-146.77;100.00
55410;BME280;41279;43.546;16.426;2023-04-08T09:13:18;52578.50;;;-146.77;99.83
55410;BME280;41279;43.546;16.426;2023-04-08T09:16:02;52636.56;;;-146.77;100.00
55410;BME280;41279;43.546;16.426;2023-04-08T09:18:29;52514.41;;;-146.77;94.00
55410;BME280;41279;43.546;16.426;2023-04-08T09:20:55;52542.44;;;-146.77;94.03
55410;BME280;41279;43.546;16.426;2023-04-08T09:23:20;52554.47;;;-146.77;97.28
55410;BME280;41279;43.546;16.426;2023-04-08T09:25:45;52550.47;;;-146.77;91.38
55410;BME280;41279;43.546;16.426;2023-04-08T09:28:20;52560.47;;;-146.77;94.78
55410;BME280;41279;43.546;16.426;2023-04-08T09:30:46;52568.47;;;-146.77;96.05
55410;BME280;41279;43.546;16.426;2023-04-08T09:33:12;52550.47;;;-146.77;92.02
55410;BME280;41279;43.546;16.426;2023-04-08T09:35:37;52522.44;;;-146.77;90.30
55410;BME280;41279;43.546;16.426;2023-04-08T09:38:03;52546.47;;;-146.77;95.37
55410;BME280;41279;43.546;16.426;2023-04-08T09:40:32;52560.47;;;-146.77;86.67
55410;BME280;41279;43.546;16.426;2023-04-08T09:43:04;52522.44;;;-146.77;87.21
55410;BME280;41279;43.546;16.426;2023-04-08T09:45:32;52522.44;;;-146.77;85.70
55410;BME280;41279;43.546;16.426;2023-04-08T09:48:11;52592.50;;;-146.77;96.12
55410;BME280;41279;43.546;16.426;2023-04-08T09:50:42;52530.44;;;-146.77;84.43
55410;BME280;41279;43.546;16.426;2023-04-08T09:53:29;52518.44;;;-146.77;84.42
55410;BME280;41279;43.546;16.426;2023-04-08T09:55:57;52518.44;;;-146.77;83.29
55410;BME280;41279;43.546;16.426;2023-04-08T09:58:27;52506.41;;;-146.77;84.34
55410;BME280;41279;43.546;16.426;2023-04-08T10:00:54;52540.44;;;-146.77;88.44
55410;BME280;41279;43.546;16.426;2023-04-08T10:03:29;52524.44;;;-146.77;85.33
55410;BME280;41279;43.546;16.426;2023-04-08T10:06:00;52532.44;;;-146.77;88.02
55410;BME280;41279;43.546;16.426;2023-04-08T10:08:26;52540.44;;;-146.77;88.75
55410;BME280;41279;43.546;16.426;2023-04-08T10:10:53;52506.41;;;-146.77;81.62
55410;BME280;41279;43.546;16.426;2023-04-08T10:13:19;52522.44;;;-146.77;86.46
55410;BME280;41279;43.546;16.426;2023-04-08T10:15:45;52524.44;;;-146.77;86.26
55410;BME280;41279;43.546;16.426;2023-04-08T10:30:54;52478.38;;;-146.77;76.17
55410;BME280;41279;43.546;16.426;2023-04-08T10:36:00;52504.41;;;-146.77;79.23
55410;BME280;41279;43.546;16.426;2023-04-08T10:38:35;52504.41;;;-146.77;76.44
55410;BME280;41279;43.546;16.426;2023-04-08T10:41:01;52494.41;;;-146.77;77.94
55410;BME280;41279;43.546;16.426;2023-04-08T10:43:31;52518.44;;;-146.77;77.52
55410;BME280;41279;43.546;16.426;2023-04-08T10:45:57;52498.41;;;-146.77;76.21
55410;BME280;41279;43.546;16.426;2023-04-08T10:48:23;52516.41;;;-146.77;73.82
55410;BME280;41279;43.546;16.426;2023-04-08T10:50:54;52506.41;;;-146.77;75.77
55410;BME280;41279;43.546;16.426;2023-04-08T10:53:32;52550.47;;;-146.77;81.37
55410;BME280;41279;43.546;16.426;2023-04-08T10:56:09;52488.41;;;-146.77;75.82
55410;BME280;41279;43.546;16.426;2023-04-08T10:58:50;52474.38;;;-146.77;75.56
55410;BME280;41279;43.546;16.426;2023-04-08T11:01:15;52496.41;;;-146.77;73.24
55410;BME280;41279;43.546;16.426;2023-04-08T11:03:41;52488.41;;;-146.77;75.25
55410;BME280;41279;43.546;16.426;2023-04-08T11:06:14;52522.44;;;-146.77;74.74
55410;BME280;41279;43.546;16.426;2023-04-08T11:08:39;52496.41;;;-146.77;74.34
55410;BME280;41279;43.546;16.426;2023-04-08T11:11:06;52524.44;;;-146.77;75.08
55410;BME280;41279;43.546;16.426;2023-04-08T11:13:44;52536.44;;;-146.77;76.16
55410;BME280;41279;43.546;16.426;2023-04-08T11:16:11;52554.47;;;-146.77;79.28
55410;BME280;41279;43.546;16.426;2023-04-08T11:18:37;52538.44;;;-146.77;78.09
55410;BME280;41279;43.546;16.426;2023-04-08T11:21:08;52514.41;;;-146.77;72.82
55410;BME280;41279;43.546;16.426;2023-04-08T11:23:35;52494.41;;;-146.77;75.61
55410;BME280;41279;43.546;16.426;2023-04-08T11:26:00;52508.41;;;-146.77;75.34
55410;BME280;41279;43.546;16.426;2023-04-08T11:28:27;52500.41;;;-146.77;73.70
55410;BME280;41279;43.546;16.426;2023-04-08T11:30:53;52532.44;;;-146.77;67.26
55410;BME280;41279;43.546;16.426;2023-04-08T11:33:19;52522.44;;;-146.77;80.44
55410;BME280;41279;43.546;16.426;2023-04-08T11:35:49;52516.41;;;-146.77;80.29
55410;BME280;41279;43.546;16.426;2023-04-08T11:38:16;52534.44;;;-146.77;77.07
55410;BME280;41279;43.546;16.426;2023-04-08T11:40:55;52552.47;;;-146.77;70.38
55410;BME280;41279;43.546;16.426;2023-04-08T11:43:23;52520.44;;;-146.77;68.49
55410;BME280;41279;43.546;16.426;2023-04-08T11:45:49;52488.41;;;-146.77;73.35
55410;BME280;41279;43.546;16.426;2023-04-08T11:48:15;52522.44;;;-146.77;71.30
55410;BME280;41279;43.546;16.426;2023-04-08T11:50:43;52486.41;;;-146.77;66.98
55410;BME280;41279;43.546;16.426;2023-04-08T11:53:19;52548.47;;;-146.77;62.48
55410;BME280;41279;43.546;16.426;2023-04-08T11:55:45;52514.41;;;-146.77;69.03
55410;BME280;41279;43.546;16.426;2023-04-08T11:58:11;52558.47;;;-146.77;71.49
55410;BME280;41279;43.546;16.426;2023-04-08T12:00:37;52542.44;;;-146.77;66.50
55410;BME280;41279;43.546;16.426;2023-04-08T12:03:03;52526.44;;;-146.77;63.83
55410;BME280;41279;43.546;16.426;2023-04-08T12:05:28;52532.44;;;-146.77;64.34
55410;BME280;41279;43.546;16.426;2023-04-08T12:07:54;52550.47;;;-146.77;61.00
55410;BME280;41279;43.546;16.426;2023-04-08T12:10:19;52546.47;;;-146.77;60.38
55410;BME280;41279;43.546;16.426;2023-04-08T12:12:45;52528.44;;;-146.77;59.69
55410;BME280;41279;43.546;16.426;2023-04-08T12:15:11;52514.41;;;-146.77;61.04
55410;BME280;41279;43.546;16.426;2023-04-08T12:17:36;52540.44;;;-146.77;65.20
55410;BME280;41279;43.546;16.426;2023-04-08T12:20:04;52562.47;;;-146.77;63.39
55410;BME280;41279;43.546;16.426;2023-04-08T12:22:30;52556.47;;;-146.77;57.56
55410;BME280;41279;43.546;16.426;2023-04-08T12:24:56;52566.47;;;-146.77;53.28
55410;BME280;41279;43.546;16.426;2023-04-08T12:27:21;52570.47;;;-146.77;52.95
55410;BME280;41279;43.546;16.426;2023-04-08T12:29:47;52538.44;;;-146.77;52.85
55410;BME280;41279;43.546;16.426;2023-04-08T12:32:14;52554.47;;;-146.77;54.91
55410;BME280;41279;43.546;16.426;2023-04-08T12:34:39;52540.44;;;-146.77;57.96
55410;BME280;41279;43.546;16.426;2023-04-08T12:37:05;52564.47;;;-146.77;56.79
55410;BME280;41279;43.546;16.426;2023-04-08T12:39:30;52574.47;;;-146.77;48.74
55410;BME280;41279;43.546;16.426;2023-04-08T12:41:56;52582.50;;;-146.77;50.24
55410;BME280;41279;43.546;16.426;2023-04-08T12:44:21;52618.53;;;-146.77;47.51
55410;BME280;41279;43.546;16.426;2023-04-08T12:46:47;52632.53;;;-146.77;48.08